createdAt,value
2023-03-04T00:00:43.207Z,34.90
2023-03-04T00:01:45.696Z,35.20
2023-03-04T00:02:48.037Z,35.50
2023-03-04T00:03:50.366Z,35.50
2023-03-04T00:04:52.638Z,35.50
2023-03-04T00:05:54.948Z,35.50
2023-03-04T00:06:57.259Z,35.50
2023-03-04T00:07:59.513Z,36.00
2023-03-04T00:09:03.926Z,35.50
2023-03-04T00:10:06.870Z,35.40
2023-03-04T00:11:09.127Z,35.40
2023-03-04T00:12:11.858Z,35.40
2023-03-04T00:13:14.293Z,35.40
2023-03-04T00:14:16.699Z,35.40
2023-03-04T00:15:19.014Z,35.50
2023-03-04T00:16:21.374Z,35.50
2023-03-04T00:17:24.102Z,35.50
2023-03-04T00:18:26.408Z,35.40
2023-03-04T00:19:28.758Z,35.30
2023-03-04T00:20:31.016Z,35.30
2023-03-04T00:21:33.403Z,35.30
2023-03-04T00:22:35.823Z,35.20
2023-03-04T00:23:38.138Z,35.10
2023-03-04T00:24:40.492Z,35.00
2023-03-04T00:25:43.683Z,34.90
2023-03-04T00:26:46.428Z,35.10
2023-03-04T00:27:48.757Z,35.00
2023-03-04T00:28:51.205Z,34.90
2023-03-04T00:29:53.501Z,35.00
2023-03-04T00:30:55.930Z,34.90
2023-03-04T00:31:58.340Z,35.00
2023-03-04T00:33:01.660Z,35.00
2023-03-04T00:34:04.049Z,34.80
2023-03-04T00:35:07.328Z,34.90
2023-03-04T00:36:10.528Z,34.80
2023-03-04T00:37:12.799Z,34.90
2023-03-04T00:38:15.142Z,34.90
2023-03-04T00:39:18.155Z,34.80
2023-03-04T00:40:20.646Z,35.40
2023-03-04T00:41:23.007Z,35.00
2023-03-04T00:42:25.410Z,35.00
2023-03-04T00:43:27.855Z,34.90
2023-03-04T00:44:30.144Z,34.90
2023-03-04T00:45:32.444Z,34.90
2023-03-04T00:46:34.789Z,34.90
2023-03-04T00:47:37.112Z,34.90
2023-03-04T00:48:39.448Z,34.90
2023-03-04T00:49:41.851Z,34.80
2023-03-04T00:50:44.828Z,34.90
2023-03-04T00:51:47.290Z,34.90
2023-03-04T00:52:49.616Z,34.80
2023-03-04T00:53:52.354Z,34.80
2023-03-04T00:54:54.699Z,34.80
2023-03-04T00:55:56.982Z,34.80
2023-03-04T00:56:59.259Z,34.80
2023-03-04T00:58:01.802Z,34.80
2023-03-04T00:59:04.495Z,34.70
2023-03-04T01:00:10.003Z,34.70
2023-03-04T01:01:12.435Z,34.70
2023-03-04T01:02:14.907Z,34.70
2023-03-04T01:03:17.252Z,34.70
2023-03-04T01:04:19.743Z,34.70
2023-03-04T01:05:22.592Z,34.70
2023-03-04T01:06:24.962Z,34.60
2023-03-04T01:07:27.289Z,34.70
2023-03-04T01:08:30.126Z,34.60
2023-03-04T01:09:32.447Z,34.60
2023-03-04T01:10:34.731Z,34.60
2023-03-04T01:11:38.045Z,34.60
2023-03-04T01:12:41.541Z,34.60
2023-03-04T01:13:43.854Z,34.70
2023-03-04T01:14:46.187Z,34.60
2023-03-04T01:15:48.873Z,34.70
2023-03-04T01:16:51.478Z,35.10
2023-03-04T01:17:54.041Z,34.70
2023-03-04T01:18:56.399Z,34.70
2023-03-04T01:19:58.712Z,34.70
2023-03-04T01:21:01.039Z,34.70
2023-03-04T01:22:05.145Z,34.70
2023-03-04T01:23:07.418Z,34.70
2023-03-04T01:24:11.167Z,34.70
2023-03-04T01:25:16.378Z,34.80
2023-03-04T01:26:19.011Z,34.70
2023-03-04T01:27:23.255Z,34.70
2023-03-04T01:28:26.364Z,34.70
2023-03-04T01:29:30.350Z,34.70
2023-03-04T01:30:33.153Z,34.70
2023-03-04T01:31:35.491Z,34.70
2023-03-04T01:32:37.829Z,34.80
2023-03-04T01:33:40.221Z,34.70
2023-03-04T01:34:42.551Z,34.70
2023-03-04T01:35:45.014Z,34.70
2023-03-04T01:36:47.348Z,34.60
2023-03-04T01:37:49.754Z,34.60
2023-03-04T01:38:52.160Z,34.50
2023-03-04T01:39:54.506Z,34.60
2023-03-04T01:40:56.846Z,34.50
2023-03-04T01:41:59.267Z,34.40
2023-03-04T01:43:01.648Z,34.40
2023-03-04T01:44:04.257Z,34.50
2023-03-04T01:45:07.751Z,34.50
2023-03-04T01:46:14.948Z,34.50
2023-03-04T01:47:18.746Z,34.50
2023-03-04T01:48:34.006Z,34.50
2023-03-04T01:49:36.364Z,34.50
2023-03-04T01:50:38.708Z,34.50
2023-03-04T01:51:52.132Z,34.50
2023-03-04T01:52:54.722Z,34.50
2023-03-04T01:53:56.992Z,34.50
2023-03-04T01:55:00.457Z,34.50
2023-03-04T01:56:14.621Z,34.40
2023-03-04T01:57:22.454Z,34.50
2023-03-04T01:58:29.969Z,34.50
2023-03-04T01:59:32.567Z,34.40
2023-03-04T02:00:35.085Z,34.50
2023-03-04T02:01:39.254Z,34.50
2023-03-04T02:02:41.620Z,34.50
2023-03-04T02:03:43.960Z,34.70
2023-03-04T02:04:46.332Z,34.60
2023-03-04T02:05:50.866Z,34.80
2023-03-04T02:06:53.751Z,32.50
2023-03-04T02:07:58.456Z,32.00
2023-03-04T02:09:00.876Z,33.50
2023-03-04T02:10:04.600Z,33.90
2023-03-04T02:11:06.945Z,33.90
2023-03-04T02:12:09.251Z,33.10
2023-03-04T02:13:12.715Z,32.90
2023-03-04T02:14:16.504Z,33.00
2023-03-04T02:15:19.124Z,33.30
2023-03-04T02:16:21.591Z,33.40
2023-03-04T02:17:28.655Z,33.50
2023-03-04T02:18:30.947Z,33.80
2023-03-04T02:19:45.910Z,34.00
2023-03-04T02:20:58.580Z,34.10
2023-03-04T02:22:00.962Z,34.10
2023-03-04T02:23:16.889Z,34.30
2023-03-04T02:24:29.237Z,34.50
2023-03-04T02:26:09.769Z,35.00
2023-03-04T02:27:12.385Z,34.30
2023-03-04T02:28:15.361Z,34.20
2023-03-04T02:29:18.545Z,34.80
2023-03-04T02:30:23.794Z,35.50
2023-03-04T02:31:33.821Z,36.30
2023-03-04T02:32:36.423Z,37.00
2023-03-04T02:33:38.736Z,37.10
2023-03-04T02:34:49.961Z,37.20
2023-03-04T02:35:52.596Z,37.70
2023-03-04T02:36:56.189Z,37.60
2023-03-04T02:37:58.700Z,37.90
2023-03-04T02:39:08.030Z,38.20
2023-03-04T02:40:27.057Z,38.30
2023-03-04T02:41:30.362Z,38.60
2023-03-04T02:42:33.582Z,38.30
2023-03-04T02:43:36.004Z,38.00
2023-03-04T02:44:41.663Z,38.00
2023-03-04T02:45:47.199Z,37.80
2023-03-04T02:46:52.329Z,37.70
2023-03-04T02:47:55.709Z,37.70
2023-03-04T02:48:58.069Z,37.90
2023-03-04T02:50:00.473Z,37.80
2023-03-04T02:51:02.958Z,37.90
2023-03-04T02:52:13.296Z,38.00
2023-03-04T02:53:16.118Z,33.10
2023-03-04T02:54:23.449Z,31.80
2023-03-04T02:55:25.880Z,31.70
2023-03-04T02:56:29.020Z,33.40
2023-03-04T02:57:31.462Z,36.40
2023-03-04T02:58:33.958Z,36.90
2023-03-04T02:59:38.690Z,37.40
2023-03-04T03:00:41.461Z,37.40
2023-03-04T03:01:44.418Z,37.70
2023-03-04T03:02:48.067Z,37.80
2023-03-04T03:03:50.351Z,37.80
2023-03-04T03:04:52.722Z,38.00
2023-03-04T03:05:56.403Z,38.50
2023-03-04T03:06:59.771Z,38.10
2023-03-04T03:08:02.782Z,38.30
2023-03-04T03:09:05.218Z,38.20
2023-03-04T03:10:07.966Z,38.20
2023-03-04T03:11:10.358Z,38.30
2023-03-04T03:12:13.217Z,38.10
2023-03-04T03:13:15.954Z,38.20
2023-03-04T03:14:18.314Z,38.00
2023-03-04T03:15:20.896Z,38.10
2023-03-04T03:16:24.090Z,38.10
2023-03-04T03:17:26.894Z,38.10
2023-03-04T03:18:29.461Z,38.40
2023-03-04T03:19:31.863Z,31.90
2023-03-04T03:20:35.831Z,31.00
2023-03-04T03:21:38.207Z,31.50
2023-03-04T03:22:41.313Z,33.30
2023-03-04T03:23:45.057Z,36.20
2023-03-04T03:24:47.460Z,36.70
2023-03-04T03:25:49.797Z,37.40
2023-03-04T03:26:52.155Z,37.50
2023-03-04T03:27:56.152Z,37.70
2023-03-04T03:28:59.688Z,37.90
2023-03-04T03:30:07.105Z,38.10
2023-03-04T03:31:13.538Z,38.10
2023-03-04T03:32:16.030Z,38.20
2023-03-04T03:33:18.429Z,38.30
2023-03-04T03:34:21.117Z,38.70
2023-03-04T03:35:24.183Z,38.80
2023-03-04T03:36:26.631Z,38.30
2023-03-04T03:37:29.032Z,32.80
2023-03-04T03:38:31.668Z,31.40
2023-03-04T03:39:34.104Z,32.20
2023-03-04T03:40:36.479Z,34.50
2023-03-04T03:41:39.885Z,36.70
2023-03-04T03:42:42.483Z,37.00
2023-03-04T03:43:44.812Z,37.40
2023-03-04T03:44:47.231Z,37.60
2023-03-04T03:45:51.887Z,37.80
2023-03-04T03:46:54.305Z,38.00
2023-03-04T03:47:56.768Z,38.20
2023-03-04T03:48:59.559Z,38.20
2023-03-04T03:50:01.927Z,38.30
2023-03-04T03:51:04.298Z,38.30
2023-03-04T03:52:08.278Z,38.20
2023-03-04T03:53:10.625Z,38.20
2023-03-04T03:54:13.165Z,38.20
2023-03-04T03:55:15.601Z,38.20
2023-03-04T03:56:17.959Z,38.20
2023-03-04T03:57:20.417Z,38.30
2023-03-04T03:58:23.209Z,38.30
2023-03-04T03:59:25.743Z,38.30
2023-03-04T04:00:28.427Z,38.50
2023-03-04T04:01:31.074Z,38.60
2023-03-04T04:02:33.535Z,38.50
2023-03-04T04:03:36.561Z,38.60
2023-03-04T04:04:38.953Z,38.60
2023-03-04T04:05:41.363Z,38.60
2023-03-04T04:06:43.693Z,38.70
2023-03-04T04:07:46.121Z,38.70
2023-03-04T04:08:48.467Z,38.70
2023-03-04T04:09:50.783Z,38.90
2023-03-04T04:10:53.158Z,38.90
2023-03-04T04:11:56.284Z,38.90
2023-03-04T04:12:59.310Z,39.00
2023-03-04T04:14:01.626Z,38.90
2023-03-04T04:15:04.384Z,39.00
2023-03-04T04:16:08.056Z,38.70
2023-03-04T04:17:11.102Z,39.00
2023-03-04T04:18:13.472Z,38.90
2023-03-04T04:19:20.083Z,39.10
2023-03-04T04:20:24.960Z,39.20
2023-03-04T04:21:28.414Z,39.10
2023-03-04T04:22:30.738Z,39.20
2023-03-04T04:23:33.537Z,32.90
2023-03-04T04:24:35.880Z,30.70
2023-03-04T04:25:38.221Z,30.50
2023-03-04T04:26:41.227Z,31.60
2023-03-04T04:27:43.553Z,32.70
2023-03-04T04:28:45.888Z,34.70
2023-03-04T04:29:48.100Z,36.40
2023-03-04T04:30:50.904Z,36.80
2023-03-04T04:31:53.321Z,37.70
2023-03-04T04:32:55.705Z,37.80
2023-03-04T04:33:59.217Z,37.80
2023-03-04T04:35:01.636Z,37.90
2023-03-04T04:36:05.093Z,38.00
2023-03-04T04:37:07.928Z,38.10
2023-03-04T04:38:10.360Z,38.20
2023-03-04T04:39:12.830Z,38.20
2023-03-04T04:40:16.659Z,38.20
2023-03-04T04:41:35.379Z,38.20
2023-03-04T04:42:40.998Z,38.20
2023-03-04T04:43:43.374Z,38.30
2023-03-04T04:44:45.759Z,38.20
2023-03-04T04:45:48.109Z,38.10
2023-03-04T04:46:50.449Z,38.20
2023-03-04T04:47:57.360Z,38.40
2023-03-04T04:48:59.956Z,38.20
2023-03-04T04:50:02.634Z,38.10
2023-03-04T04:51:05.433Z,38.40
2023-03-04T04:52:07.866Z,38.20
2023-03-04T04:53:13.279Z,38.40
2023-03-04T04:54:15.835Z,38.40
2023-03-04T04:55:18.540Z,38.40
2023-03-04T04:56:26.162Z,38.50
2023-03-04T04:57:28.679Z,38.60
2023-03-04T04:58:30.978Z,38.60
2023-03-04T04:59:33.309Z,38.50
2023-03-04T05:00:35.675Z,38.60
2023-03-04T05:01:38.205Z,38.60
2023-03-04T05:02:40.975Z,38.60
2023-03-04T05:03:43.629Z,38.80
2023-03-04T05:04:46.031Z,38.80
2023-03-04T05:05:49.060Z,38.80
2023-03-04T05:06:53.778Z,38.80
2023-03-04T05:07:56.125Z,38.90
2023-03-04T05:08:58.488Z,39.00
2023-03-04T05:10:00.924Z,39.20
2023-03-04T05:11:05.428Z,39.00
2023-03-04T05:12:07.789Z,39.20
2023-03-04T05:13:10.474Z,39.30
2023-03-04T05:14:12.811Z,39.30
2023-03-04T05:15:15.516Z,39.40
2023-03-04T05:16:18.066Z,39.40
2023-03-04T05:17:20.476Z,39.30
2023-03-04T05:18:24.266Z,39.40
2023-03-04T05:19:27.239Z,39.50
2023-03-04T05:20:29.657Z,39.60
2023-03-04T05:21:32.042Z,39.60
2023-03-04T05:22:34.851Z,39.70
2023-03-04T05:23:39.754Z,39.70
2023-03-04T05:24:42.663Z,40.10
2023-03-04T05:25:45.167Z,39.70
2023-03-04T05:26:47.596Z,39.80
2023-03-04T05:27:50.038Z,39.80
2023-03-04T05:28:52.405Z,39.70
2023-03-04T05:29:59.698Z,33.30
2023-03-04T05:31:02.393Z,30.40
2023-03-04T05:32:05.010Z,30.90
2023-03-04T05:33:08.891Z,32.80
2023-03-04T05:34:11.341Z,35.90
2023-03-04T05:35:13.726Z,36.30
2023-03-04T05:36:16.774Z,37.60
2023-03-04T05:37:19.137Z,38.50
2023-03-04T05:38:22.338Z,38.60
2023-03-04T05:39:24.760Z,38.80
2023-03-04T05:40:27.164Z,38.80
2023-03-04T05:41:29.636Z,38.70
2023-03-04T05:42:33.351Z,38.80
2023-03-04T05:43:36.802Z,38.80
2023-03-04T05:44:39.687Z,39.10
2023-03-04T05:45:42.373Z,38.80
2023-03-04T05:46:45.860Z,38.80
2023-03-04T05:47:48.816Z,38.90
2023-03-04T05:48:52.790Z,39.10
2023-03-04T05:49:55.115Z,38.80
2023-03-04T05:51:00.234Z,39.00
2023-03-04T05:52:02.536Z,39.00
2023-03-04T05:53:05.021Z,38.80
2023-03-04T05:54:07.507Z,39.00
2023-03-04T05:55:10.730Z,35.90
2023-03-04T05:56:18.942Z,31.30
2023-03-04T05:57:21.258Z,31.10
2023-03-04T05:58:23.594Z,32.50
2023-03-04T05:59:25.911Z,34.50
2023-03-04T06:00:28.441Z,36.10
2023-03-04T06:01:31.416Z,37.50
2023-03-04T06:02:33.771Z,37.90
2023-03-04T06:03:36.596Z,38.00
2023-03-04T06:04:39.054Z,38.40
2023-03-04T06:05:41.455Z,38.50
2023-03-04T06:06:46.449Z,38.70
2023-03-04T06:07:48.929Z,38.90
2023-03-04T06:08:51.425Z,38.70
2023-03-04T06:09:54.235Z,38.80
2023-03-04T06:10:57.578Z,38.80
2023-03-04T06:11:59.871Z,39.00
2023-03-04T06:13:02.214Z,38.90
2023-03-04T06:14:04.522Z,39.10
2023-03-04T06:15:09.984Z,39.40
2023-03-04T06:16:12.584Z,39.30
2023-03-04T06:17:14.981Z,39.70
2023-03-04T06:18:17.308Z,39.30
2023-03-04T06:19:19.761Z,38.60
2023-03-04T06:20:22.172Z,32.20
2023-03-04T06:21:24.509Z,32.00
2023-03-04T06:22:26.765Z,34.30
2023-03-04T06:23:30.828Z,35.80
2023-03-04T06:24:33.182Z,37.90
2023-03-04T06:25:35.532Z,39.20
2023-03-04T06:26:37.960Z,39.50
2023-03-04T06:27:40.492Z,39.30
2023-03-04T06:28:43.798Z,39.10
2023-03-04T06:29:46.245Z,38.70
2023-03-04T06:30:48.786Z,38.70
2023-03-04T06:31:51.255Z,39.10
2023-03-04T06:32:53.612Z,39.20
2023-03-04T06:33:55.948Z,39.20
2023-03-04T06:34:58.280Z,39.20
2023-03-04T06:36:00.651Z,39.60
2023-03-04T06:37:03.895Z,39.40
2023-03-04T06:38:06.126Z,39.40
2023-03-04T06:39:09.167Z,39.50
2023-03-04T06:40:12.403Z,39.50
2023-03-04T06:41:14.843Z,39.60
2023-03-04T06:42:17.501Z,39.60
2023-03-04T06:43:20.463Z,39.70
2023-03-04T06:44:22.839Z,39.70
2023-03-04T06:45:25.125Z,39.80
2023-03-04T06:46:30.315Z,39.80
2023-03-04T06:47:33.200Z,39.10
2023-03-04T06:48:36.112Z,37.80
2023-03-04T06:49:38.411Z,37.30
2023-03-04T06:50:41.367Z,37.10
2023-03-04T06:51:43.864Z,38.00
2023-03-04T06:52:46.828Z,38.90
2023-03-04T06:53:49.350Z,39.40
2023-03-04T06:54:51.962Z,39.50
2023-03-04T06:55:54.637Z,39.60
2023-03-04T06:56:57.425Z,39.80
2023-03-04T06:57:59.809Z,39.80
2023-03-04T06:59:02.314Z,39.80
2023-03-04T07:00:05.767Z,39.90
2023-03-04T07:01:16.245Z,40.00
2023-03-04T07:02:18.640Z,40.00
2023-03-04T07:03:21.236Z,40.00
2023-03-04T07:04:24.699Z,40.10
2023-03-04T07:05:27.075Z,40.60
2023-03-04T07:06:29.896Z,40.00
2023-03-04T07:07:32.273Z,40.00
2023-03-04T07:08:34.634Z,40.00
2023-03-04T07:09:37.028Z,40.00
2023-03-04T07:10:39.359Z,40.00
2023-03-04T07:11:41.720Z,40.00
2023-03-04T07:12:44.457Z,40.10
2023-03-04T07:13:47.102Z,40.00
2023-03-04T07:14:49.452Z,38.80
2023-03-04T07:15:52.687Z,37.70
2023-03-04T07:16:55.748Z,37.20
2023-03-04T07:17:58.049Z,37.20
2023-03-04T07:19:00.650Z,37.00
2023-03-04T07:20:03.801Z,37.40
2023-03-04T07:21:07.206Z,38.80
2023-03-04T07:22:09.574Z,39.30
2023-03-04T07:23:12.023Z,39.40
2023-03-04T07:24:14.494Z,39.60
2023-03-04T07:25:17.933Z,39.80
2023-03-04T07:26:20.340Z,39.90
2023-03-04T07:27:22.924Z,40.00
2023-03-04T07:28:25.267Z,39.90
2023-03-04T07:29:27.756Z,39.90
2023-03-04T07:30:30.284Z,39.90
2023-03-04T07:31:34.862Z,39.90
2023-03-04T07:32:37.633Z,40.00
2023-03-04T07:33:40.137Z,40.00
2023-03-04T07:34:42.473Z,40.00
2023-03-04T07:35:44.908Z,40.00
2023-03-04T07:36:47.361Z,39.90
2023-03-04T07:37:49.792Z,39.90
2023-03-04T07:38:54.699Z,39.80
2023-03-04T07:39:57.133Z,39.80
2023-03-04T07:40:59.762Z,39.80
2023-03-04T07:42:02.303Z,39.80
2023-03-04T07:43:05.814Z,40.00
2023-03-04T07:44:13.160Z,39.90
2023-03-04T07:45:15.855Z,40.00
2023-03-04T07:46:19.528Z,40.30
2023-03-04T07:47:22.021Z,40.20
2023-03-04T07:48:26.226Z,40.30
2023-03-04T07:49:30.016Z,40.20
2023-03-04T07:50:32.358Z,40.30
2023-03-04T07:51:35.844Z,40.30
2023-03-04T07:52:40.014Z,40.20
2023-03-04T07:53:47.449Z,40.00
2023-03-04T07:54:49.790Z,40.10
2023-03-04T07:55:52.134Z,40.10
2023-03-04T07:56:54.566Z,40.10
2023-03-04T07:57:57.500Z,40.10
2023-03-04T07:59:00.994Z,40.10
2023-03-04T08:00:04.078Z,40.00
2023-03-04T08:01:18.725Z,40.10
2023-03-04T08:02:21.199Z,40.10
2023-03-04T08:03:23.982Z,40.00
2023-03-04T08:04:26.450Z,40.00
2023-03-04T08:05:28.928Z,40.00
2023-03-04T08:06:31.631Z,40.00
2023-03-04T08:07:34.134Z,40.00
2023-03-04T08:08:37.357Z,39.90
2023-03-04T08:09:39.873Z,40.00
2023-03-04T08:10:42.897Z,40.00
2023-03-04T08:11:45.518Z,40.10
2023-03-04T08:12:48.130Z,40.00
2023-03-04T08:13:50.894Z,40.00
2023-03-04T08:14:53.323Z,39.90
2023-03-04T08:15:56.509Z,40.00
2023-03-04T08:16:58.953Z,40.00
2023-03-04T08:18:02.142Z,40.00
2023-03-04T08:19:05.613Z,40.00
2023-03-04T08:20:08.588Z,40.00
2023-03-04T08:21:12.240Z,39.90
2023-03-04T08:22:14.665Z,39.90
2023-03-04T08:23:17.086Z,40.00
2023-03-04T08:24:19.613Z,39.90
2023-03-04T08:25:22.125Z,39.70
2023-03-04T08:26:31.119Z,39.70
2023-03-04T08:27:33.530Z,39.70
2023-03-04T08:28:36.083Z,39.70
2023-03-04T08:29:38.468Z,39.70
2023-03-04T08:30:42.142Z,39.80
2023-03-04T08:31:48.748Z,39.80
2023-03-04T08:32:51.467Z,39.80
2023-03-04T08:33:53.918Z,39.80
2023-03-04T08:34:56.915Z,39.80
2023-03-04T08:35:59.699Z,39.80
2023-03-04T08:37:02.098Z,39.90
2023-03-04T08:38:05.123Z,39.80
2023-03-04T08:39:07.548Z,39.80
2023-03-04T08:40:10.829Z,39.80
2023-03-04T08:41:13.924Z,39.90
2023-03-04T08:42:16.304Z,39.80
2023-03-04T08:43:18.680Z,39.80
2023-03-04T08:44:21.061Z,39.80
2023-03-04T08:45:23.424Z,39.80
2023-03-04T08:46:25.882Z,40.30
2023-03-04T08:47:28.245Z,39.80
2023-03-04T08:48:30.979Z,39.70
2023-03-04T08:49:33.362Z,39.80
2023-03-04T08:50:36.143Z,39.70
2023-03-04T08:51:38.615Z,39.80
2023-03-04T08:52:41.030Z,39.80
2023-03-04T08:53:43.619Z,39.80
2023-03-04T08:54:46.054Z,39.80
2023-03-04T08:55:48.667Z,39.70
2023-03-04T08:56:51.116Z,39.70
2023-03-04T08:57:53.523Z,39.80
2023-03-04T08:58:55.891Z,39.80
2023-03-04T08:59:58.339Z,39.70
2023-03-04T09:01:01.589Z,39.70
2023-03-04T09:02:03.967Z,39.80
2023-03-04T09:03:06.433Z,39.80
2023-03-04T09:04:08.860Z,39.80
2023-03-04T09:05:11.335Z,39.80
2023-03-04T09:06:17.331Z,39.80
2023-03-04T09:07:19.856Z,39.80
2023-03-04T09:08:22.231Z,39.80
2023-03-04T09:09:24.760Z,39.80
2023-03-04T09:10:27.206Z,39.80
2023-03-04T09:11:30.137Z,39.80
2023-03-04T09:12:32.812Z,39.80
2023-03-04T09:13:36.001Z,39.70
2023-03-04T09:14:38.407Z,40.00
2023-03-04T09:15:47.971Z,40.00
2023-03-04T09:16:50.389Z,39.70
2023-03-04T09:17:53.283Z,39.80
2023-03-04T09:18:55.667Z,39.80
2023-03-04T09:19:58.054Z,39.70
2023-03-04T09:21:00.353Z,39.70
2023-03-04T09:22:02.738Z,39.70
2023-03-04T09:23:05.160Z,39.70
2023-03-04T09:24:07.606Z,39.70
2023-03-04T09:25:13.537Z,39.70
2023-03-04T09:26:25.241Z,39.80
2023-03-04T09:27:27.740Z,39.70
2023-03-04T09:28:30.126Z,40.10
2023-03-04T09:29:32.585Z,39.70
2023-03-04T09:30:35.894Z,39.70
2023-03-04T09:31:38.349Z,39.70
2023-03-04T09:32:41.612Z,39.70
2023-03-04T09:33:44.233Z,39.70
2023-03-04T09:34:46.921Z,39.70
2023-03-04T09:35:49.936Z,39.70
2023-03-04T09:36:52.418Z,39.70
2023-03-04T09:37:54.837Z,39.70
2023-03-04T09:39:01.351Z,39.80
2023-03-04T09:40:05.482Z,39.70
2023-03-04T09:41:18.291Z,39.80
2023-03-04T09:42:28.302Z,40.00
2023-03-04T09:43:32.110Z,39.90
2023-03-04T09:44:40.896Z,40.10
2023-03-04T09:45:55.575Z,39.90
2023-03-04T09:47:01.903Z,39.80
2023-03-04T09:48:07.055Z,39.80
2023-03-04T09:49:13.774Z,40.30
2023-03-04T09:50:17.594Z,39.00
2023-03-04T09:51:40.732Z,39.40
2023-03-04T09:52:54.244Z,39.50
2023-03-04T09:54:06.204Z,39.60
2023-03-04T09:55:17.827Z,39.70
2023-03-04T09:56:20.159Z,39.90
2023-03-04T09:57:56.901Z,40.00
2023-03-04T09:59:25.140Z,40.00
2023-03-04T10:00:44.007Z,39.90
2023-03-04T10:01:51.243Z,40.00
2023-03-04T10:03:10.142Z,40.10
2023-03-04T10:04:41.099Z,40.10
2023-03-04T10:06:04.787Z,40.10
2023-03-04T10:07:19.060Z,40.60
2023-03-04T10:08:39.442Z,40.20
2023-03-04T10:09:53.973Z,40.30
2023-03-04T10:10:58.367Z,40.20
2023-03-04T10:12:13.225Z,40.30
2023-03-04T10:13:22.326Z,40.30
2023-03-04T10:14:32.437Z,40.30
2023-03-04T10:15:43.995Z,40.30
2023-03-04T10:16:52.138Z,39.30
2023-03-04T10:18:22.070Z,34.20
2023-03-04T10:19:47.505Z,33.90
2023-03-04T10:20:53.352Z,34.30
2023-03-04T10:21:55.901Z,35.50
2023-03-04T10:23:11.448Z,36.10
2023-03-04T10:24:19.310Z,35.30
2023-03-04T10:25:30.760Z,36.90
2023-03-04T10:26:33.504Z,37.80
2023-03-04T10:27:36.065Z,38.80
2023-03-04T10:28:39.141Z,40.20
2023-03-04T10:29:41.615Z,39.60
2023-03-04T10:30:46.686Z,39.30
2023-03-04T10:31:49.710Z,39.20
2023-03-04T10:32:52.148Z,39.40
2023-03-04T10:33:54.633Z,39.60
2023-03-04T10:34:57.349Z,39.70
2023-03-04T10:36:04.944Z,39.70
2023-03-04T10:37:09.882Z,39.70
2023-03-04T10:38:13.787Z,39.80
2023-03-04T10:39:26.001Z,39.60
2023-03-04T10:40:28.428Z,39.40
2023-03-04T10:41:31.603Z,40.50
2023-03-04T10:42:37.640Z,39.70
2023-03-04T10:43:40.584Z,39.70
2023-03-04T10:44:55.243Z,39.80
2023-03-04T10:45:58.615Z,40.50
2023-03-04T10:47:01.736Z,39.70
2023-03-04T10:48:04.832Z,39.80
2023-03-04T10:49:09.727Z,39.90
2023-03-04T10:50:25.504Z,39.90
2023-03-04T10:51:29.961Z,39.90
2023-03-04T10:52:38.394Z,39.80
2023-03-04T10:53:43.362Z,40.00
2023-03-04T10:54:52.385Z,39.90
2023-03-04T10:55:54.934Z,39.90
2023-03-04T10:57:02.699Z,39.90
2023-03-04T10:58:06.722Z,39.90
2023-03-04T10:59:27.856Z,39.90
2023-03-04T11:00:33.530Z,39.30
2023-03-04T11:01:35.892Z,37.70
2023-03-04T11:02:38.293Z,37.30
2023-03-04T11:03:48.553Z,37.20
2023-03-04T11:05:12.210Z,37.00
2023-03-04T11:06:20.989Z,37.60
2023-03-04T11:07:27.752Z,37.70
2023-03-04T11:08:30.180Z,38.20
2023-03-04T11:09:32.530Z,38.90
2023-03-04T11:10:37.610Z,39.10
2023-03-04T11:11:44.707Z,39.00
2023-03-04T11:12:53.118Z,39.00
2023-03-04T11:13:59.514Z,39.10
2023-03-04T11:15:02.833Z,39.40
2023-03-04T11:16:25.318Z,39.80
2023-03-04T11:17:41.883Z,39.90
2023-03-04T11:18:49.890Z,39.90
2023-03-04T11:20:03.918Z,39.90
2023-03-04T11:21:07.951Z,39.90
2023-03-04T11:22:15.795Z,40.00
2023-03-04T11:23:32.094Z,40.20
2023-03-04T11:24:37.121Z,40.20
2023-03-04T11:25:44.804Z,40.00
2023-03-04T11:26:50.489Z,40.10
2023-03-04T11:27:59.477Z,40.10
2023-03-04T11:29:14.054Z,39.90
2023-03-04T11:30:40.708Z,39.90
2023-03-04T11:32:00.468Z,39.90
2023-03-04T11:33:29.362Z,39.80
2023-03-04T11:34:41.026Z,40.10
2023-03-04T11:35:52.320Z,39.90
2023-03-04T11:36:57.542Z,39.90
2023-03-04T11:38:05.934Z,39.90
2023-03-04T11:39:21.888Z,39.90
2023-03-04T11:40:41.444Z,40.20
2023-03-04T11:41:58.659Z,40.00
2023-03-04T11:43:14.759Z,40.10
2023-03-04T11:44:17.092Z,37.20
2023-03-04T11:45:54.975Z,36.80
2023-03-04T11:47:58.616Z,37.00
2023-03-04T11:49:25.868Z,38.00
2023-03-04T11:50:42.665Z,39.00
2023-03-04T11:52:02.867Z,40.50
2023-03-04T11:53:31.549Z,40.90
2023-03-04T11:55:03.691Z,41.30
2023-03-04T11:56:16.059Z,40.90
2023-03-04T11:57:56.383Z,40.60
2023-03-04T11:59:10.977Z,40.40
2023-03-04T12:00:35.727Z,40.20
2023-03-04T12:01:55.921Z,40.20
2023-03-04T12:03:35.709Z,40.30
2023-03-04T12:05:15.982Z,40.30
2023-03-04T12:06:35.294Z,40.20
2023-03-04T12:07:37.546Z,40.30
2023-03-04T12:08:54.437Z,40.30
2023-03-04T12:10:22.281Z,40.30
2023-03-04T12:11:45.462Z,40.20
2023-03-04T12:13:14.609Z,40.30
2023-03-04T12:14:25.355Z,40.30
2023-03-04T12:15:42.617Z,40.80
2023-03-04T12:17:01.017Z,40.50
2023-03-04T12:18:33.295Z,40.40
2023-03-04T12:19:47.068Z,40.20
2023-03-04T12:21:17.091Z,40.30
2023-03-04T12:22:30.024Z,40.40
2023-03-04T12:24:01.258Z,40.30
2023-03-04T12:25:09.563Z,40.30
2023-03-04T12:26:36.490Z,40.40
2023-03-04T12:27:44.912Z,40.40
2023-03-04T12:29:04.067Z,40.40
2023-03-04T12:30:14.068Z,40.50
2023-03-04T12:31:36.283Z,40.40
2023-03-04T12:32:57.240Z,40.40
2023-03-04T12:34:20.628Z,40.50
2023-03-04T12:35:41.794Z,40.30
2023-03-04T12:36:48.421Z,40.60
2023-03-04T12:38:00.679Z,40.50
2023-03-04T12:39:30.233Z,40.40
2023-03-04T12:40:42.440Z,41.00
2023-03-04T12:41:44.781Z,40.60
2023-03-04T12:43:06.160Z,40.70
2023-03-04T12:44:13.147Z,40.40
2023-03-04T12:45:25.541Z,40.40
2023-03-04T12:46:41.852Z,40.50
2023-03-04T12:47:50.252Z,40.30
2023-03-04T12:49:20.091Z,40.40
2023-03-04T12:50:28.226Z,40.10
2023-03-04T12:52:03.025Z,40.10
2023-03-04T12:53:29.876Z,40.20
2023-03-04T12:54:39.797Z,40.10
2023-03-04T12:55:45.539Z,40.20
2023-03-04T12:56:57.831Z,40.30
2023-03-04T12:58:00.331Z,40.40
2023-03-04T12:59:03.231Z,40.60
2023-03-04T13:00:17.933Z,40.70
2023-03-04T13:01:32.289Z,40.80
2023-03-04T13:02:55.531Z,40.70
2023-03-04T13:04:14.414Z,40.80
2023-03-04T13:05:35.929Z,40.80
2023-03-04T13:07:13.045Z,40.70
2023-03-04T13:08:37.195Z,40.80
2023-03-04T13:09:58.451Z,40.90
2023-03-04T13:11:03.736Z,40.90
2023-03-04T13:12:20.313Z,40.80
2023-03-04T13:13:34.364Z,40.90
2023-03-04T13:14:36.842Z,41.00
2023-03-04T13:15:39.666Z,40.90
2023-03-04T13:16:43.864Z,40.90
2023-03-04T13:17:51.523Z,41.00
2023-03-04T13:18:54.633Z,40.80
2023-03-04T13:20:12.070Z,41.00
2023-03-04T13:21:23.187Z,41.00
2023-03-04T13:22:30.008Z,41.00
2023-03-04T13:23:32.925Z,41.50
2023-03-04T13:24:52.367Z,40.90
2023-03-04T13:25:57.865Z,40.90
2023-03-04T13:27:00.421Z,41.00
2023-03-04T13:28:02.733Z,41.20
2023-03-04T13:29:31.852Z,40.90
2023-03-04T13:30:34.480Z,41.00
2023-03-04T13:31:58.001Z,41.00
2023-03-04T13:33:08.937Z,40.90
2023-03-04T13:34:43.268Z,41.00
2023-03-04T13:35:54.367Z,41.00
2023-03-04T13:36:57.434Z,41.00
2023-03-04T13:38:00.354Z,41.10
2023-03-04T13:39:22.551Z,40.90
2023-03-04T13:40:34.806Z,40.90
2023-03-04T13:41:51.900Z,41.00
2023-03-04T13:42:54.274Z,41.00
2023-03-04T13:43:58.320Z,41.00
2023-03-04T13:45:02.605Z,40.90
2023-03-04T13:46:20.649Z,41.10
2023-03-04T13:47:30.272Z,41.20
2023-03-04T13:48:36.379Z,41.00
2023-03-04T13:49:38.724Z,41.10
2023-03-04T13:50:48.105Z,41.00
2023-03-04T13:51:50.953Z,41.20
2023-03-04T13:52:53.422Z,41.00
2023-03-04T13:54:07.945Z,41.10
2023-03-04T13:55:40.218Z,41.10
2023-03-04T13:57:21.046Z,41.10
2023-03-04T13:58:27.227Z,41.00
2023-03-04T13:59:42.926Z,41.00
2023-03-04T14:00:49.542Z,41.00
2023-03-04T14:01:56.831Z,41.10
2023-03-04T14:03:14.098Z,41.00
2023-03-04T14:04:18.742Z,41.20
2023-03-04T14:05:21.254Z,41.00
2023-03-04T14:06:26.708Z,41.10
2023-03-04T14:07:33.672Z,41.10
2023-03-04T14:08:35.990Z,41.10
2023-03-04T14:09:38.514Z,41.20
2023-03-04T14:10:41.246Z,41.30
2023-03-04T14:11:44.370Z,41.10